Historique des mesures à Cassis (13260), France
Quotidien Résumé Fevrier 9, 2018 Unités:  Métrique/US    US   Métrique
« Précédent (Jour)
Suivant (Jour) »
Quotidien Hebdomadaire Mensuel Annuel Période au choix
  Maximum: Minimum: Moyenne:
Température: TemperatureC °F /  -17.8 °C 2.4 °F /  -16.4 °C 5.1 °F /  -14.9 °C
Point de rosée: DewpointC °F /  -17.8 °C -1.9 °F /  -18.8 °C -0.5 °F /  -18.1 °C
Humidité: Humidity % 56 % 64 %
Vitesse du vent: WindSpeedKMH mph /  0 km/h - 4 mph /  6.4 km/h
Rafales: WindSpeedGustKMH mph /  0 km/h - -
Vent:- - SW
Pression: PressurehPa in /  0 hPa 1009.7 in /  34188.4 hPa -
Précipitations: 0.0 in /  0 mm    
Historical Graphs
 
 
Mesures pour : Fevrier 9, 2018
Heure Temperature Point de rosée Pression Vent Vitesse du vent Rafales Humidité Pluie (par heure) Conditions
TemperatureC °F /  -17.8 °C DewpointC °F /  -17.8 °C PressurehPa in /  0 hPa Calm     Humidity % HourlyPrecipMM in /  0 mm SoftwareType W/m2
00:12 3.5 °F /  -15.8 °C -1.7 °F /  -18.7 °C 1014.4 in /  34347.6 hPa Calm     69 % 0.0 in /  0 mm open2300-1.11 W/m2
01:12 3.2 °F /  -16 °C -1.6 °F /  -18.7 °C 1014.4 in /  34347.6 hPa Calm     71 % 0.0 in /  0 mm open2300-1.11 W/m2
02:12 3.0 °F /  -16.1 °C -1.4 °F /  -18.6 °C 1014.1 in /  34337.4 hPa Calm     73 % 0.0 in /  0 mm open2300-1.11 W/m2
03:12 2.8 °F /  -16.2 °C -1.4 °F /  -18.6 °C 1014.1 in /  34337.4 hPa Calm   2.9 mph /  4.7 km/h 74 % 0.0 in /  0 mm open2300-1.11 W/m2
04:12 2.4 °F /  -16.4 °C -1.8 °F /  -18.8 °C 1013.4 in /  34313.7 hPa North 6.1 mph /  9.8 km/h 9.3 mph /  15 km/h 74 % 0.0 in /  0 mm open2300-1.11 W/m2
05:12 2.4 °F /  -16.4 °C -1.8 °F /  -18.8 °C 1013.4 in /  34313.7 hPa North 6.8 mph /  10.9 km/h 6.8 mph /  10.9 km/h 74 % 0.0 in /  0 mm open2300-1.11 W/m2
06:12 2.4 °F /  -16.4 °C -1.8 °F /  -18.8 °C 1013.4 in /  34313.7 hPa NW 1.4 mph /  2.3 km/h 2.1 mph /  3.4 km/h 74 % 0.0 in /  0 mm open2300-1.11 W/m2
07:12 2.6 °F /  -16.3 °C -1.9 °F /  -18.8 °C 1013.4 in /  34313.7 hPa Calm     72 % 0.0 in /  0 mm open2300-1.11 W/m2
08:12 2.8 °F /  -16.2 °C -1.9 °F /  -18.8 °C 1013.4 in /  34313.7 hPa Calm   2.6 mph /  4.2 km/h 71 % 0.0 in /  0 mm open2300-1.11 W/m2
09:12 4.9 °F /  -15.1 °C -0.9 °F /  -18.3 °C 1013.4 in /  34313.7 hPa Calm     66 % 0.0 in /  0 mm open2300-1.11 W/m2
10:12 5.8 °F /  -14.6 °C -0.1 °F /  -17.8 °C 1013.1 in /  34303.6 hPa NNW 4.0 mph /  6.4 km/h 4.0 mph /  6.4 km/h 66 % 0.0 in /  0 mm open2300-1.11 W/m2
11:12 7.8 °F /  -13.4 °C 1.2 °F /  -17.1 °C 1012.8 in /  34293.4 hPa ESE 7.6 mph /  12.2 km/h 7.6 mph /  12.2 km/h 63 % 0.0 in /  0 mm open2300-1.11 W/m2
12:12 8.9 °F /  -12.8 °C 1.3 °F /  -17.1 °C 1012.8 in /  34293.4 hPa ESE 6.1 mph /  9.8 km/h 6.1 mph /  9.8 km/h 59 % 0.0 in /  0 mm open2300-1.11 W/m2
13:12 9.2 °F /  -12.7 °C 0.8 °F /  -17.3 °C 1012.1 in /  34269.7 hPa West 2.9 mph /  4.7 km/h 2.9 mph /  4.7 km/h 56 % 0.0 in /  0 mm open2300-1.11 W/m2
14:12 8.8 °F /  -12.9 °C 1.0 °F /  -17.2 °C 1011.1 in /  34235.8 hPa Calm   5.5 mph /  8.9 km/h 58 % 0.0 in /  0 mm open2300-1.11 W/m2
15:12 8.9 °F /  -12.8 °C 1.1 °F /  -17.2 °C 1010.4 in /  34212.1 hPa NW 14.8 mph /  23.8 km/h 15.8 mph /  25.4 km/h 58 % 0.0 in /  0 mm open2300-1.11 W/m2
16:12 8.1 °F /  -13.3 °C 0.6 °F /  -17.4 °C 1010.0 in /  34198.6 hPa NW 16.9 mph /  27.2 km/h 16.9 mph /  27.2 km/h 59 % 0.0 in /  0 mm open2300-1.11 W/m2
17:12 7.3 °F /  -13.7 °C 0.3 °F /  -17.6 °C 1010.0 in /  34198.6 hPa NNW 10.5 mph /  16.9 km/h 14.8 mph /  23.8 km/h 61 % 0.0 in /  0 mm open2300-1.11 W/m2
18:12 6.1 °F /  -14.4 °C -0.4 °F /  -18 °C 1010.0 in /  34198.6 hPa NW 2.6 mph /  4.2 km/h 10.5 mph /  16.9 km/h 63 % 0.0 in /  0 mm open2300-1.11 W/m2
19:12 5.7 °F /  -14.6 °C -0.6 °F /  -18.1 °C 1010.0 in /  34198.6 hPa WNW 7.2 mph /  11.6 km/h 10.1 mph /  16.3 km/h 64 % 0.0 in /  0 mm open2300-1.11 W/m2
20:12 5.4 °F /  -14.8 °C -0.7 °F /  -18.2 °C 1010.4 in /  34212.1 hPa WNW 10.5 mph /  16.9 km/h 10.5 mph /  16.9 km/h 65 % 0.0 in /  0 mm open2300-1.11 W/m2
21:12 5.0 °F /  -15 °C -0.8 °F /  -18.2 °C 1010.4 in /  34212.1 hPa Calm     66 % 0.0 in /  0 mm open2300-1.11 W/m2
22:12 5.1 °F /  -14.9 °C -0.6 °F /  -18.1 °C 1010.0 in /  34198.6 hPa Calm   1.1 mph /  1.8 km/h 67 % 0.0 in /  0 mm open2300-1.11 W/m2
23:12 5.8 °F /  -14.6 °C -0.3 °F /  -17.9 °C 1009.7 in /  34188.4 hPa North 2.1 mph /  3.4 km/h 2.1 mph /  3.4 km/h 65 % 0.0 in /  0 mm open2300-1.11 W/m2
Observations météo à CASSIS
WU-History script by Weather Underground - 1 mb